Time;durP1;ratioP1;P1;durP2;ratioP2;P2;SDS_P1;SDS_P2;PMS_P1;PMS_P2;Temp;Humidity;BMP_temperature;BMP_pressure;BME280_temperature;BME280_humidity;BME280_pressure;Samples;Min_cycle;Max_cycle;Signal;HPM_P1;HPM_P2
2024/03/23 00:01:38;;;;;;;36.67;9.52;;;;;;;;;;5052724;28;20220;-73
2024/03/23 00:04:04;;;;;;;39.38;8.70;;;;;;;;;;5055058;28;20224;-73
2024/03/23 00:06:31;;;;;;;40.90;9.00;;;;;;;;;;5053936;28;20185;-73
2024/03/23 00:08:57;;;;;;;40.47;7.78;;;;;;;;;;5056388;28;20623;-73
2024/03/23 00:11:24;;;;;;;39.00;7.88;;;;;;;;;;5056341;28;20845;-73
2024/03/23 00:13:50;;;;;;;37.88;7.20;;;;;;;;;;5054134;28;20236;-73
2024/03/23 00:16:17;;;;;;;42.05;7.63;;;;;;;;;;5053845;28;20243;-73
2024/03/23 00:18:43;;;;;;;39.95;8.18;;;;;;;;;;5054645;28;20245;-72
2024/03/23 00:21:10;;;;;;;34.22;7.32;;;;;;;;;;5051858;28;20221;-72
2024/03/23 00:23:36;;;;;;;33.70;7.50;;;;;;;;;;5053952;28;20276;-72
2024/03/23 00:26:03;;;;;;;29.23;7.20;;;;;;;;;;5051893;28;21061;-72
2024/03/23 00:28:29;;;;;;;38.13;8.25;;;;;;;;;;5054087;28;20216;-71
2024/03/23 00:30:56;;;;;;;34.90;7.10;;;;;;;;;;5058307;28;20629;-72
2024/03/23 00:33:22;;;;;;;40.92;7.47;;;;;;;;;;5077442;28;20229;-72
2024/03/23 00:35:48;;;;;;;33.03;7.28;;;;;;;;;;5056112;28;20192;-72
2024/03/23 00:38:15;;;;;;;37.47;7.80;;;;;;;;;;5055228;28;20225;-72
2024/03/23 00:40:41;;;;;;;44.58;7.00;;;;;;;;;;5051138;28;20598;-72
2024/03/23 00:43:08;;;;;;;31.85;7.57;;;;;;;;;;5059735;28;20231;-72
2024/03/23 00:45:35;;;;;;;37.72;7.68;;;;;;;;;;5056012;28;20548;-73
2024/03/23 00:48:01;;;;;;;38.40;7.43;;;;;;;;;;5055764;28;20242;-72
2024/03/23 00:50:28;;;;;;;37.28;7.90;;;;;;;;;;5046844;28;20677;-72
2024/03/23 00:52:54;;;;;;;31.13;7.45;;;;;;;;;;5055231;28;20223;-72
2024/03/23 00:55:20;;;;;;;37.10;6.95;;;;;;;;;;5055501;28;20668;-72
2024/03/23 00:57:45;;;;;;;38.78;7.20;;;;;;;;;;5051587;28;20220;-71
2024/03/23 01:00:12;;;;;;;39.42;7.70;;;;;;;;;;5060989;28;20209;-72
2024/03/23 01:02:37;;;;;;;46.20;7.35;;;;;;;;;;5055740;28;20193;-72
2024/03/23 01:05:03;;;;;;;34.15;7.05;;;;;;;;;;5058077;28;20191;-72
2024/03/23 01:07:28;;;;;;;27.50;7.28;;;;;;;;;;5057531;28;20192;-71
2024/03/23 01:09:54;;;;;;;38.25;6.90;;;;;;;;;;5052941;28;20581;-72
2024/03/23 01:12:19;;;;;;;34.60;7.40;;;;;;;;;;5049291;28;20208;-71
2024/03/23 01:14:44;;;;;;;26.47;6.37;;;;;;;;;;5056400;28;20224;-72
2024/03/23 01:17:10;;;;;;;40.72;7.30;;;;;;;;;;5059199;28;20199;-72
2024/03/23 01:19:35;;;;;;;37.45;7.07;;;;;;;;;;5054422;28;20629;-72
2024/03/23 01:22:01;;;;;;;38.83;6.85;;;;;;;;;;5052737;28;20633;-72
2024/03/23 01:24:26;;;;;;;34.57;5.90;;;;;;;;;;5053188;28;20193;-72
2024/03/23 01:26:52;;;;;;;35.15;7.50;;;;;;;;;;5053634;28;20577;-72
2024/03/23 01:29:17;;;;;;;40.05;6.05;;;;;;;;;;5034332;28;20184;-72
2024/03/23 01:31:43;;;;;;;49.90;7.70;;;;;;;;;;5051268;28;20195;-72
2024/03/23 01:34:08;;;;;;;37.72;6.80;;;;;;;;;;5050190;28;20198;-72
2024/03/23 01:36:33;;;;;;;32.25;5.65;;;;;;;;;;5051491;28;20315;-72
2024/03/23 01:38:59;;;;;;;31.25;6.57;;;;;;;;;;5055052;28;20221;-71
2024/03/23 01:41:24;;;;;;;42.17;6.07;;;;;;;;;;5055887;28;20186;-71
2024/03/23 01:43:50;;;;;;;36.33;6.55;;;;;;;;;;5055484;28;20629;-71
2024/03/23 01:46:16;;;;;;;30.90;5.70;;;;;;;;;;5055809;28;20196;-72
2024/03/23 01:48:42;;;;;;;30.25;5.63;;;;;;;;;;5058083;28;20189;-72
2024/03/23 01:51:07;;;;;;;21.17;5.13;;;;;;;;;;5060033;28;20316;-72
2024/03/23 01:53:33;;;;;;;29.27;5.15;;;;;;;;;;5059568;28;20208;-71
2024/03/23 01:55:58;;;;;;;36.40;6.07;;;;;;;;;;5059245;28;20197;-72
2024/03/23 01:58:24;;;;;;;30.10;5.43;;;;;;;;;;5055405;28;20315;-72
2024/03/23 02:00:49;;;;;;;38.83;6.63;;;;;;;;;;5054917;28;20304;-72
2024/03/23 02:03:28;;;;;;;30.98;5.90;;;;;;;;;;5056249;28;20277;-73
2024/03/23 02:05:54;;;;;;;37.43;7.03;;;;;;;;;;5057297;28;20189;-73
2024/03/23 02:08:21;;;;;;;31.50;6.15;;;;;;;;;;5058025;28;20414;-73
2024/03/23 02:10:49;;;;;;;30.20;6.28;;;;;;;;;;5059261;28;20746;-73
2024/03/23 02:13:15;;;;;;;28.13;6.03;;;;;;;;;;5056642;28;20240;-73
2024/03/23 02:15:41;;;;;;;33.47;5.95;;;;;;;;;;5059186;28;20634;-73
2024/03/23 02:18:08;;;;;;;27.83;6.13;;;;;;;;;;5059950;28;20195;-73
2024/03/23 02:20:34;;;;;;;33.50;6.15;;;;;;;;;;5054959;28;20217;-73
2024/03/23 02:22:59;;;;;;;28.88;5.85;;;;;;;;;;5058104;28;20599;-72
2024/03/23 02:25:25;;;;;;;41.72;6.65;;;;;;;;;;5059225;28;20193;-72
2024/03/23 02:27:50;;;;;;;37.47;6.47;;;;;;;;;;5053122;28;20197;-72
2024/03/23 02:30:15;;;;;;;34.97;6.88;;;;;;;;;;5056839;28;20322;-73
2024/03/23 02:32:41;;;;;;;25.80;5.83;;;;;;;;;;5054828;28;20202;-73
2024/03/23 02:35:06;;;;;;;29.40;6.28;;;;;;;;;;5057717;28;20196;-73
2024/03/23 02:37:32;;;;;;;37.63;7.25;;;;;;;;;;5058554;28;20679;-73
2024/03/23 02:39:58;;;;;;;39.30;7.20;;;;;;;;;;5056199;28;20625;-73
2024/03/23 02:42:23;;;;;;;38.58;7.57;;;;;;;;;;5051004;28;20201;-73
2024/03/23 02:44:49;;;;;;;33.60;7.68;;;;;;;;;;5054804;28;20200;-73
2024/03/23 02:47:14;;;;;;;37.70;7.33;;;;;;;;;;5057071;28;20203;-73
2024/03/23 02:49:40;;;;;;;34.50;7.57;;;;;;;;;;5052562;28;20192;-72
2024/03/23 02:52:05;;;;;;;32.97;7.97;;;;;;;;;;5056342;28;20193;-73
2024/03/23 02:54:31;;;;;;;34.43;7.80;;;;;;;;;;5035653;28;20643;-73
2024/03/23 02:56:56;;;;;;;23.53;7.40;;;;;;;;;;5057857;28;20177;-72
2024/03/23 02:59:22;;;;;;;31.63;8.23;;;;;;;;;;5058196;28;20217;-73
2024/03/23 03:01:47;;;;;;;39.97;8.10;;;;;;;;;;5052978;28;20197;-73
2024/03/23 03:04:12;;;;;;;34.97;8.07;;;;;;;;;;5052474;28;20870;-73
2024/03/23 03:06:38;;;;;;;33.40;8.27;;;;;;;;;;5054420;28;20200;-72
2024/03/23 03:09:04;;;;;;;33.23;8.00;;;;;;;;;;5058043;28;20212;-73
2024/03/23 03:11:30;;;;;;;37.33;8.00;;;;;;;;;;5054809;28;20197;-72
2024/03/23 03:13:55;;;;;;;26.70;8.13;;;;;;;;;;5062441;28;20547;-72
2024/03/23 03:16:20;;;;;;;46.97;9.50;;;;;;;;;;5055133;28;20255;-72
2024/03/23 03:18:46;;;;;;;35.90;9.67;;;;;;;;;;5058169;28;20244;-71
2024/03/23 03:21:12;;;;;;;41.33;9.93;;;;;;;;;;5060494;28;20284;-72
2024/03/23 03:23:38;;;;;;;47.57;9.93;;;;;;;;;;5058473;28;20696;-71
2024/03/23 03:26:04;;;;;;;46.03;10.60;;;;;;;;;;5058388;28;20272;-71
2024/03/23 03:28:34;;;;;;;40.53;10.47;;;;;;;;;;5059656;28;20237;-71
2024/03/23 03:31:00;;;;;;;41.73;10.83;;;;;;;;;;5054908;28;20592;-72
2024/03/23 03:33:29;;;;;;;46.97;10.73;;;;;;;;;;5057532;28;20220;-72
2024/03/23 03:35:55;;;;;;;46.73;11.57;;;;;;;;;;5056257;28;20339;-72
2024/03/23 03:38:21;;;;;;;49.47;11.37;;;;;;;;;;5056885;28;20273;-72
2024/03/23 03:40:46;;;;;;;39.87;10.43;;;;;;;;;;5051100;28;20220;-72
2024/03/23 03:43:12;;;;;;;46.17;10.13;;;;;;;;;;5057443;28;20331;-72
2024/03/23 03:45:37;;;;;;;40.83;10.90;;;;;;;;;;5056044;28;20664;-72
2024/03/23 03:48:03;;;;;;;42.13;10.73;;;;;;;;;;5058429;28;20216;-72
2024/03/23 03:50:28;;;;;;;40.03;11.23;;;;;;;;;;5055418;28;20207;-71
2024/03/23 03:52:54;;;;;;;39.37;10.63;;;;;;;;;;5049100;28;20268;-72
2024/03/23 03:55:19;;;;;;;50.50;10.93;;;;;;;;;;5054167;28;20197;-72
2024/03/23 03:57:45;;;;;;;49.03;11.27;;;;;;;;;;5048628;28;20200;-72
2024/03/23 04:00:11;;;;;;;41.13;10.60;;;;;;;;;;5058007;28;20231;-73
2024/03/23 04:02:39;;;;;;;53.77;11.87;;;;;;;;;;5054572;28;20717;-72
2024/03/23 04:05:05;;;;;;;47.57;10.77;;;;;;;;;;5061202;28;20193;-73
2024/03/23 04:07:31;;;;;;;39.07;10.63;;;;;;;;;;5054412;28;20200;-73
2024/03/23 04:09:57;;;;;;;49.40;13.03;;;;;;;;;;5055150;28;20629;-73
2024/03/23 04:12:23;;;;;;;36.03;11.13;;;;;;;;;;5056064;28;20216;-73
2024/03/23 04:14:48;;;;;;;43.50;11.63;;;;;;;;;;5056363;28;20196;-73
2024/03/23 04:17:14;;;;;;;51.73;12.30;;;;;;;;;;5057430;28;20193;-71
2024/03/23 04:19:39;;;;;;;34.33;10.50;;;;;;;;;;5071367;28;20233;-73
2024/03/23 04:22:05;;;;;;;47.13;12.53;;;;;;;;;;5066600;28;20676;-72
2024/03/23 04:24:30;;;;;;;49.47;12.27;;;;;;;;;;5056217;28;20230;-72
2024/03/23 04:26:56;;;;;;;35.43;11.47;;;;;;;;;;5059678;28;20192;-72
2024/03/23 04:29:21;;;;;;;43.53;12.30;;;;;;;;;;5068651;28;20193;-73
2024/03/23 04:31:47;;;;;;;45.17;12.53;;;;;;;;;;5067156;28;20268;-73
2024/03/23 04:34:13;;;;;;;51.13;13.07;;;;;;;;;;5059272;28;20219;-72
2024/03/23 04:36:40;;;;;;;45.73;13.63;;;;;;;;;;5067234;28;20724;-72
2024/03/23 04:39:08;;;;;;;48.57;13.77;;;;;;;;;;5072422;28;20212;-73
2024/03/23 04:41:34;;;;;;;45.50;12.80;;;;;;;;;;5061022;28;20504;-73
2024/03/23 04:44:00;;;;;;;42.87;13.23;;;;;;;;;;5064457;28;20608;-73
2024/03/23 04:46:26;;;;;;;41.07;13.07;;;;;;;;;;5055345;28;20246;-73
2024/03/23 04:48:52;;;;;;;46.77;13.80;;;;;;;;;;5058343;28;20204;-72
2024/03/23 04:51:23;;;;;;;47.03;14.63;;;;;;;;;;5067094;28;20200;-73
2024/03/23 04:53:48;;;;;;;58.77;14.10;;;;;;;;;;5058844;28;20259;-73
2024/03/23 04:56:18;;;;;;;51.00;15.10;;;;;;;;;;5066246;28;20624;-73
2024/03/23 04:58:43;;;;;;;46.60;14.07;;;;;;;;;;5053573;28;20184;-73
2024/03/23 05:01:09;;;;;;;44.40;15.47;;;;;;;;;;5057408;28;20219;-73
2024/03/23 05:03:34;;;;;;;54.83;15.63;;;;;;;;;;5043668;28;20712;-73
2024/03/23 05:06:00;;;;;;;45.33;14.50;;;;;;;;;;5061722;28;20205;-73
2024/03/23 05:08:25;;;;;;;42.80;15.30;;;;;;;;;;5064038;28;20193;-73
2024/03/23 05:10:51;;;;;;;42.13;14.90;;;;;;;;;;5059248;28;20671;-72
2024/03/23 05:13:16;;;;;;;43.43;14.17;;;;;;;;;;5054816;28;20192;-72
2024/03/23 05:15:42;;;;;;;41.93;14.90;;;;;;;;;;5065153;28;20261;-73
2024/03/23 05:18:07;;;;;;;44.47;15.40;;;;;;;;;;5056916;28;20368;-72
2024/03/23 05:20:33;;;;;;;53.00;16.33;;;;;;;;;;5052930;28;20649;-72
2024/03/23 05:22:58;;;;;;;45.13;15.13;;;;;;;;;;5060211;28;20227;-72
2024/03/23 05:25:23;;;;;;;46.83;16.73;;;;;;;;;;5053955;28;20198;-73
2024/03/23 05:27:49;;;;;;;41.57;15.97;;;;;;;;;;5055033;28;20220;-73
2024/03/23 05:30:15;;;;;;;49.77;16.73;;;;;;;;;;5055654;28;20189;-73
2024/03/23 05:32:41;;;;;;;48.80;16.67;;;;;;;;;;5060442;28;20239;-73
2024/03/23 05:35:08;;;;;;;40.73;16.50;;;;;;;;;;5039060;28;20294;-73
2024/03/23 05:37:37;;;;;;;52.27;18.40;;;;;;;;;;5053624;28;20232;-72
2024/03/23 05:40:03;;;;;;;50.37;17.50;;;;;;;;;;5064025;28;20221;-72
2024/03/23 05:42:29;;;;;;;55.90;19.40;;;;;;;;;;5034931;28;20268;-72
2024/03/23 05:44:54;;;;;;;54.07;20.23;;;;;;;;;;5057483;28;20272;-72
2024/03/23 05:47:19;;;;;;;59.27;19.70;;;;;;;;;;5056735;28;20189;-73
2024/03/23 05:49:46;;;;;;;55.87;20.47;;;;;;;;;;5040569;28;20287;-73
2024/03/23 05:52:12;;;;;;;53.10;20.57;;;;;;;;;;5058400;28;20221;-73
2024/03/23 05:54:37;;;;;;;55.00;19.67;;;;;;;;;;5059171;28;20688;-72
2024/03/23 05:57:03;;;;;;;53.83;19.80;;;;;;;;;;5068150;28;20185;-73
2024/03/23 05:59:29;;;;;;;53.50;19.83;;;;;;;;;;5073647;28;20201;-72
2024/03/23 06:01:55;;;;;;;54.87;21.87;;;;;;;;;;5068509;28;20189;-73
2024/03/23 06:04:21;;;;;;;52.80;20.67;;;;;;;;;;5080820;28;20279;-73
2024/03/23 06:06:46;;;;;;;59.93;20.37;;;;;;;;;;5067356;28;20246;-73
2024/03/23 06:09:12;;;;;;;61.00;20.57;;;;;;;;;;5059839;28;20185;-73
2024/03/23 06:11:38;;;;;;;51.83;21.30;;;;;;;;;;5063311;28;20263;-73
2024/03/23 06:14:03;;;;;;;54.63;21.20;;;;;;;;;;5071519;28;20212;-73
2024/03/23 06:16:30;;;;;;;58.63;21.20;;;;;;;;;;5069858;28;20688;-73
2024/03/23 06:18:56;;;;;;;53.00;20.73;;;;;;;;;;5071149;28;20200;-72
2024/03/23 06:21:23;;;;;;;45.43;19.77;;;;;;;;;;5064396;28;20188;-73
2024/03/23 06:23:52;;;;;;;62.83;20.23;;;;;;;;;;5050732;28;20185;-73
2024/03/23 06:26:21;;;;;;;50.63;19.57;;;;;;;;;;5063043;28;20659;-73
2024/03/23 06:28:47;;;;;;;40.97;18.03;;;;;;;;;;5069037;28;20218;-73
2024/03/23 06:31:13;;;;;;;49.63;18.73;;;;;;;;;;5059137;28;20534;-73
2024/03/23 06:33:39;;;;;;;50.63;19.73;;;;;;;;;;5069417;28;20184;-73
2024/03/23 06:36:05;;;;;;;49.50;18.73;;;;;;;;;;5063850;28;20232;-73
2024/03/23 06:38:31;;;;;;;50.63;16.80;;;;;;;;;;5060882;28;20199;-72
2024/03/23 06:40:56;;;;;;;41.70;17.23;;;;;;;;;;5067022;28;20208;-72
2024/03/23 06:43:21;;;;;;;35.07;16.00;;;;;;;;;;5083442;28;20204;-72
2024/03/23 06:45:54;;;;;;;32.83;14.57;;;;;;;;;;5066409;28;20188;-72
2024/03/23 06:48:19;;;;;;;36.95;14.15;;;;;;;;;;5069641;28;20509;-73
2024/03/23 06:50:46;;;;;;;37.27;13.20;;;;;;;;;;5065950;28;20185;-72
2024/03/23 06:53:12;;;;;;;32.38;12.20;;;;;;;;;;5068562;28;20188;-72
2024/03/23 06:55:37;;;;;;;30.57;11.40;;;;;;;;;;5064725;28;20618;-72
2024/03/23 06:58:04;;;;;;;30.48;10.60;;;;;;;;;;5067821;28;20181;-72
2024/03/23 07:00:29;;;;;;;33.05;10.43;;;;;;;;;;5065137;28;20218;-72
2024/03/23 07:02:55;;;;;;;28.63;11.00;;;;;;;;;;5063683;28;20275;-72
2024/03/23 07:05:20;;;;;;;28.47;10.50;;;;;;;;;;5060505;28;20560;-72
2024/03/23 07:07:45;;;;;;;22.77;8.10;;;;;;;;;;5062307;28;20314;-71
2024/03/23 07:10:11;;;;;;;26.50;7.30;;;;;;;;;;5061113;28;20181;-72
2024/03/23 07:12:37;;;;;;;17.20;4.93;;;;;;;;;;5065157;28;20189;-72
2024/03/23 07:15:02;;;;;;;17.20;5.17;;;;;;;;;;5070290;28;20188;-72
2024/03/23 07:17:28;;;;;;;14.40;3.80;;;;;;;;;;5070216;28;20234;-72
2024/03/23 07:19:53;;;;;;;9.43;2.70;;;;;;;;;;5069438;28;20208;-73
2024/03/23 07:22:19;;;;;;;8.15;1.73;;;;;;;;;;5066700;28;20203;-73
2024/03/23 07:24:44;;;;;;;4.20;1.03;;;;;;;;;;5067329;28;20180;-72
2024/03/23 07:27:10;;;;;;;6.77;1.43;;;;;;;;;;5061729;28;20687;-73
2024/03/23 07:29:38;;;;;;;6.30;1.10;;;;;;;;;;5066325;28;20221;-71
2024/03/23 07:32:04;;;;;;;4.07;1.00;;;;;;;;;;5069937;28;20185;-74
2024/03/23 07:34:29;;;;;;;6.23;1.37;;;;;;;;;;5083255;28;20626;-73
2024/03/23 07:36:55;;;;;;;4.20;1.00;;;;;;;;;;5080088;28;20303;-73
2024/03/23 07:39:20;;;;;;;6.07;1.20;;;;;;;;;;5073007;28;21221;-71
2024/03/23 07:41:46;;;;;;;6.23;1.27;;;;;;;;;;5069187;28;20322;-70
2024/03/23 07:44:11;;;;;;;4.30;0.90;;;;;;;;;;5062526;28;20201;-72
2024/03/23 07:46:37;;;;;;;3.43;0.93;;;;;;;;;;5065178;28;20588;-71
2024/03/23 07:49:04;;;;;;;8.70;1.37;;;;;;;;;;5066961;28;20227;-71
2024/03/23 07:51:29;;;;;;;3.83;0.60;;;;;;;;;;5073354;28;20187;-71
2024/03/23 07:53:55;;;;;;;6.93;1.27;;;;;;;;;;5073134;28;20557;-72
2024/03/23 07:56:21;;;;;;;6.03;1.10;;;;;;;;;;5065251;28;20196;-72
2024/03/23 07:58:47;;;;;;;4.70;0.82;;;;;;;;;;5068859;28;20203;-72
2024/03/23 08:01:17;;;;;;;4.60;0.90;;;;;;;;;;5067598;28;20211;-72
2024/03/23 08:03:46;;;;;;;5.03;1.15;;;;;;;;;;5070280;28;20361;-72
2024/03/23 08:06:11;;;;;;;7.27;0.97;;;;;;;;;;5062123;28;20213;-72
2024/03/23 08:08:37;;;;;;;9.50;1.80;;;;;;;;;;5068261;28;20219;-72
2024/03/23 08:11:06;;;;;;;5.07;1.70;;;;;;;;;;5066871;28;20656;-72
2024/03/23 08:13:31;;;;;;;6.47;1.38;;;;;;;;;;5066550;28;20195;-72
2024/03/23 08:16:01;;;;;;;6.70;1.60;;;;;;;;;;5058959;28;20641;-72
2024/03/23 08:18:27;;;;;;;7.30;1.83;;;;;;;;;;5062824;28;20258;-72
2024/03/23 08:20:57;;;;;;;7.57;1.73;;;;;;;;;;5063909;28;20291;-72
2024/03/23 08:23:27;;;;;;;6.72;2.08;;;;;;;;;;5069306;28;20188;-72
2024/03/23 08:25:57;;;;;;;8.80;2.20;;;;;;;;;;5067699;28;20190;-71
2024/03/23 08:28:23;;;;;;;9.40;3.00;;;;;;;;;;5072028;28;20188;-72
2024/03/23 08:30:49;;;;;;;15.88;3.15;;;;;;;;;;5058244;28;20211;-72
2024/03/23 08:33:15;;;;;;;11.05;3.25;;;;;;;;;;5067640;28;20196;-72
2024/03/23 08:35:41;;;;;;;10.32;3.17;;;;;;;;;;5067899;28;20600;-72
2024/03/23 08:38:06;;;;;;;21.77;3.80;;;;;;;;;;5062860;28;20555;-72
2024/03/23 08:40:32;;;;;;;17.38;3.80;;;;;;;;;;5063185;28;20216;-71
2024/03/23 08:42:57;;;;;;;14.02;3.92;;;;;;;;;;5077084;28;20546;-71
2024/03/23 08:45:24;;;;;;;13.25;3.40;;;;;;;;;;5067139;28;20189;-70
2024/03/23 08:47:50;;;;;;;15.32;4.15;;;;;;;;;;5078108;28;20180;-71
2024/03/23 08:50:15;;;;;;;16.35;3.90;;;;;;;;;;5073939;28;20191;-71
2024/03/23 08:52:41;;;;;;;15.43;4.53;;;;;;;;;;5067900;28;20199;-70
2024/03/23 08:55:07;;;;;;;16.67;3.95;;;;;;;;;;5068153;28;20612;-71
2024/03/23 08:57:32;;;;;;;9.32;3.38;;;;;;;;;;5066518;28;20331;-71
2024/03/23 08:59:58;;;;;;;13.35;3.00;;;;;;;;;;5068380;28;20403;-70
2024/03/23 09:02:23;;;;;;;13.80;3.00;;;;;;;;;;5065945;28;20248;-72
2024/03/23 09:04:49;;;;;;;12.40;2.97;;;;;;;;;;5067836;28;20424;-71
2024/03/23 09:07:14;;;;;;;11.40;3.15;;;;;;;;;;5064207;28;20180;-70
2024/03/23 09:09:40;;;;;;;12.02;3.28;;;;;;;;;;5066315;28;20184;-70
2024/03/23 09:12:06;;;;;;;16.48;3.22;;;;;;;;;;5068493;28;20652;-71
2024/03/23 09:14:32;;;;;;;14.20;3.72;;;;;;;;;;5067309;28;20390;-70
2024/03/23 09:16:58;;;;;;;9.90;2.80;;;;;;;;;;5059273;28;20185;-71
2024/03/23 09:19:23;;;;;;;12.02;2.83;;;;;;;;;;5066574;28;20369;-71
2024/03/23 09:21:49;;;;;;;14.35;2.90;;;;;;;;;;5063771;28;20192;-70
2024/03/23 09:24:14;;;;;;;12.10;3.00;;;;;;;;;;5067848;28;20690;-70
2024/03/23 09:26:40;;;;;;;11.32;2.80;;;;;;;;;;5059768;28;20212;-71
2024/03/23 09:29:05;;;;;;;11.95;2.72;;;;;;;;;;5066958;28;20181;-71
2024/03/23 09:31:31;;;;;;;6.75;2.03;;;;;;;;;;5066467;28;20199;-70
2024/03/23 09:33:58;;;;;;;5.65;2.03;;;;;;;;;;5067470;28;20273;-70
2024/03/23 09:36:23;;;;;;;10.20;2.47;;;;;;;;;;5055982;28;20225;-72
2024/03/23 09:38:49;;;;;;;12.75;2.45;;;;;;;;;;5063658;28;20303;-71
2024/03/23 09:41:15;;;;;;;9.18;2.53;;;;;;;;;;5063490;28;20212;-72
2024/03/23 09:43:40;;;;;;;7.90;1.67;;;;;;;;;;5065416;28;20177;-72
2024/03/23 09:46:06;;;;;;;7.82;2.38;;;;;;;;;;5063378;28;20196;-72
2024/03/23 09:48:32;;;;;;;6.82;1.95;;;;;;;;;;5045557;28;20203;-72
2024/03/23 09:50:59;;;;;;;7.03;1.90;;;;;;;;;;5061902;28;20177;-73
2024/03/23 09:53:24;;;;;;;7.60;1.90;;;;;;;;;;5066638;28;20201;-72
2024/03/23 09:55:49;;;;;;;9.43;2.33;;;;;;;;;;5064387;28;20537;-72
2024/03/23 09:58:18;;;;;;;11.73;2.78;;;;;;;;;;5063323;28;20235;-72
2024/03/23 10:00:44;;;;;;;8.50;2.15;;;;;;;;;;5064972;28;20555;-73
2024/03/23 10:03:11;;;;;;;9.75;2.35;;;;;;;;;;5069345;28;20188;-71
2024/03/23 10:05:37;;;;;;;8.48;2.25;;;;;;;;;;5066285;28;20246;-71
2024/03/23 10:08:29;;;;;;;12.35;2.60;;;;;;;;;;5071156;28;20597;-71
2024/03/23 10:10:54;;;;;;;12.27;3.45;;;;;;;;;;5051413;28;20285;-72
2024/03/23 10:13:27;;;;;;;9.93;2.45;;;;;;;;;;5066376;28;20284;-73
2024/03/23 10:15:57;;;;;;;7.97;2.78;;;;;;;;;;5063472;28;20256;-71
2024/03/23 10:18:24;;;;;;;11.85;2.50;;;;;;;;;;5065704;28;20266;-72
2024/03/23 10:21:06;;;;;;;14.77;3.00;;;;;;;;;;5068850;28;20211;-72
2024/03/23 10:23:32;;;;;;;16.17;2.83;;;;;;;;;;5067619;28;20208;-72
2024/03/23 10:26:21;;;;;;;10.85;2.85;;;;;;;;;;5070202;28;20199;-72
2024/03/23 10:29:01;;;;;;;9.60;2.10;;;;;;;;;;5068164;28;20275;-72
2024/03/23 10:31:31;;;;;;;7.65;1.92;;;;;;;;;;5067667;28;20659;-72
2024/03/23 10:33:56;;;;;;;7.65;1.73;;;;;;;;;;5060352;28;20197;-71
2024/03/23 10:36:23;;;;;;;9.77;1.80;;;;;;;;;;5068716;28;20546;-72
2024/03/23 10:38:50;;;;;;;11.13;1.98;;;;;;;;;;5069637;28;20197;-72
2024/03/23 10:41:16;;;;;;;8.23;1.70;;;;;;;;;;5061910;28;20300;-71
2024/03/23 10:43:43;;;;;;;5.47;1.50;;;;;;;;;;5059501;28;20279;-73
2024/03/23 10:46:09;;;;;;;3.30;0.60;;;;;;;;;;5070268;28;20181;-72
2024/03/23 10:48:34;;;;;;;1.02;0.50;;;;;;;;;;5072135;28;20181;-74
2024/03/23 10:51:00;;;;;;;3.58;1.27;;;;;;;;;;5072634;28;20562;-75
2024/03/23 10:53:27;;;;;;;2.40;0.70;;;;;;;;;;5063213;28;20257;-73
2024/03/23 10:55:54;;;;;;;2.53;0.50;;;;;;;;;;5068572;28;20258;-74
2024/03/23 10:58:26;;;;;;;3.42;0.77;;;;;;;;;;5062787;28;20555;-74
2024/03/23 11:00:53;;;;;;;6.45;0.77;;;;;;;;;;5065850;28;20268;-74
2024/03/23 11:03:32;;;;;;;1.65;0.50;;;;;;;;;;5068210;28;20212;-75
2024/03/23 11:05:58;;;;;;;5.47;0.93;;;;;;;;;;5064661;28;20279;-75
2024/03/23 11:08:31;;;;;;;6.13;0.90;;;;;;;;;;5066956;28;20192;-75
2024/03/23 11:11:12;;;;;;;2.67;0.55;;;;;;;;;;5055700;28;20565;-74
2024/03/23 11:13:38;;;;;;;5.32;0.85;;;;;;;;;;5061425;28;20262;-74
2024/03/23 11:16:14;;;;;;;6.07;0.93;;;;;;;;;;5068510;28;20196;-74
2024/03/23 11:18:40;;;;;;;5.53;0.90;;;;;;;;;;5058392;28;20217;-74
2024/03/23 11:21:07;;;;;;;9.13;1.48;;;;;;;;;;5071395;28;20763;-74
2024/03/23 11:23:32;;;;;;;6.93;1.60;;;;;;;;;;5063029;28;20280;-73
2024/03/23 11:25:58;;;;;;;5.72;1.20;;;;;;;;;;5061296;28;20378;-76
2024/03/23 11:28:23;;;;;;;4.30;0.98;;;;;;;;;;5060123;28;20185;-75
2024/03/23 11:30:48;;;;;;;9.95;1.23;;;;;;;;;;5059654;28;20404;-76
2024/03/23 11:33:15;;;;;;;6.40;1.20;;;;;;;;;;5063011;28;20205;-74
2024/03/23 11:35:41;;;;;;;8.55;1.38;;;;;;;;;;5061689;28;20193;-73
2024/03/23 11:38:14;;;;;;;6.82;1.33;;;;;;;;;;5062316;28;20181;-74
2024/03/23 11:40:45;;;;;;;6.03;1.20;;;;;;;;;;5067500;28;20231;-75
2024/03/23 11:43:13;;;;;;;6.22;1.42;;;;;;;;;;5065757;28;20187;-77
2024/03/23 11:45:42;;;;;;;5.38;1.00;;;;;;;;;;5076427;28;20189;-76
2024/03/23 11:48:19;;;;;;;4.43;0.80;;;;;;;;;;5062470;28;20280;-76
2024/03/23 11:50:46;;;;;;;7.30;0.90;;;;;;;;;;5055830;28;20181;-76
2024/03/23 11:53:17;;;;;;;2.50;0.87;;;;;;;;;;5061989;28;20638;-76
2024/03/23 11:55:46;;;;;;;3.90;1.05;;;;;;;;;;5043434;28;20271;-74
2024/03/23 11:58:12;;;;;;;5.50;1.07;;;;;;;;;;5070536;28;20180;-75
2024/03/23 12:00:38;;;;;;;1.87;1.00;;;;;;;;;;5065226;28;20445;-75
2024/03/23 12:03:04;;;;;;;5.85;1.63;;;;;;;;;;5045064;28;20215;-75
2024/03/23 12:05:31;;;;;;;5.22;1.67;;;;;;;;;;5069099;28;20184;-75
2024/03/23 12:08:16;;;;;;;4.25;1.40;;;;;;;;;;5057722;28;20674;-74
2024/03/23 12:10:44;;;;;;;6.75;1.30;;;;;;;;;;5060711;28;20552;-73
2024/03/23 12:13:10;;;;;;;5.65;1.40;;;;;;;;;;5061325;28;20656;-73
2024/03/23 12:15:36;;;;;;;7.57;2.03;;;;;;;;;;5073861;28;20208;-73
2024/03/23 12:18:11;;;;;;;8.20;1.80;;;;;;;;;;5060523;28;20671;-72
2024/03/23 12:20:40;;;;;;;10.68;1.98;;;;;;;;;;5066939;28;20291;-72
2024/03/23 12:23:11;;;;;;;10.05;1.80;;;;;;;;;;5073757;28;20169;-72
2024/03/23 12:25:37;;;;;;;4.30;1.30;;;;;;;;;;5066053;28;20280;-72
2024/03/23 12:28:04;;;;;;;3.90;0.90;;;;;;;;;;5069381;28;20180;-72
2024/03/23 12:30:30;;;;;;;4.85;0.70;;;;;;;;;;5066958;28;20215;-72
2024/03/23 12:32:55;;;;;;;0.77;0.32;;;;;;;;;;5070263;28;20420;-71
2024/03/23 12:35:21;;;;;;;3.85;0.60;;;;;;;;;;5069247;28;20200;-73
2024/03/23 12:37:46;;;;;;;3.23;0.70;;;;;;;;;;5058776;28;20370;-72
2024/03/23 12:40:11;;;;;;;1.63;0.37;;;;;;;;;;5064847;28;20214;-73
2024/03/23 12:42:37;;;;;;;1.20;0.50;;;;;;;;;;5069720;28;20267;-74
2024/03/23 12:45:03;;;;;;;6.93;1.07;;;;;;;;;;5055366;28;20292;-74
2024/03/23 12:47:30;;;;;;;6.25;0.90;;;;;;;;;;5045892;28;20268;-73
2024/03/23 12:49:55;;;;;;;3.03;0.70;;;;;;;;;;5064430;28;20230;-73
2024/03/23 12:52:23;;;;;;;5.28;1.05;;;;;;;;;;5061942;28;20207;-74
2024/03/23 12:54:48;;;;;;;8.60;1.30;;;;;;;;;;5062916;28;20306;-74
2024/03/23 12:57:13;;;;;;;5.53;0.90;;;;;;;;;;5076128;28;20557;-73
2024/03/23 12:59:39;;;;;;;4.25;1.13;;;;;;;;;;5078863;28;20252;-74
2024/03/23 13:02:04;;;;;;;10.60;2.25;;;;;;;;;;5080441;28;20183;-72
2024/03/23 13:04:30;;;;;;;4.95;1.25;;;;;;;;;;5063267;28;20868;-72
2024/03/23 13:06:55;;;;;;;7.70;1.70;;;;;;;;;;5064463;28;20655;-72
2024/03/23 13:09:21;;;;;;;6.63;1.98;;;;;;;;;;5051778;28;20197;-72
2024/03/23 13:11:46;;;;;;;9.15;1.75;;;;;;;;;;5069002;28;20584;-73
2024/03/23 13:14:14;;;;;;;9.15;1.60;;;;;;;;;;5069396;28;20269;-72
2024/03/23 13:16:39;;;;;;;8.52;1.90;;;;;;;;;;5068519;28;20180;-72
2024/03/23 13:19:05;;;;;;;10.15;1.60;;;;;;;;;;5063594;28;20564;-72
2024/03/23 13:21:30;;;;;;;7.25;1.67;;;;;;;;;;5055907;28;20215;-72
2024/03/23 13:23:56;;;;;;;13.35;2.13;;;;;;;;;;5052511;28;20185;-72
2024/03/23 13:26:21;;;;;;;12.55;2.00;;;;;;;;;;5067708;28;20701;-71
2024/03/23 13:28:46;;;;;;;7.82;1.67;;;;;;;;;;5053975;28;20719;-72
2024/03/23 13:31:12;;;;;;;10.27;1.77;;;;;;;;;;5071157;28;20268;-72
2024/03/23 13:33:37;;;;;;;9.30;1.77;;;;;;;;;;5055739;28;20185;-72
2024/03/23 13:36:03;;;;;;;6.90;1.58;;;;;;;;;;5072346;28;20531;-71
2024/03/23 13:38:28;;;;;;;8.75;1.92;;;;;;;;;;5072573;28;20192;-72
2024/03/23 13:40:59;;;;;;;13.70;1.40;;;;;;;;;;5071799;28;20582;-72
2024/03/23 13:43:28;;;;;;;8.32;1.58;;;;;;;;;;5053784;28;20288;-72
2024/03/23 13:45:56;;;;;;;5.28;1.30;;;;;;;;;;5071184;28;20644;-72
2024/03/23 13:48:23;;;;;;;11.07;1.40;;;;;;;;;;5063886;28;20197;-70
2024/03/23 13:51:04;;;;;;;6.15;1.00;;;;;;;;;;5072185;28;20687;-70
2024/03/23 13:53:32;;;;;;;10.07;1.23;;;;;;;;;;5072261;28;20687;-71
2024/03/23 13:55:57;;;;;;;8.05;1.33;;;;;;;;;;5063719;28;20184;-71
2024/03/23 13:58:26;;;;;;;6.75;1.55;;;;;;;;;;5066284;28;20532;-72
2024/03/23 14:00:52;;;;;;;11.85;1.55;;;;;;;;;;5070299;28;20213;-72
2024/03/23 14:03:18;;;;;;;8.95;1.95;;;;;;;;;;5047631;28;20272;-72
2024/03/23 14:05:44;;;;;;;8.35;1.98;;;;;;;;;;5067211;28;20195;-72
2024/03/23 14:08:10;;;;;;;6.03;1.50;;;;;;;;;;5064120;28;20235;-74
2024/03/23 14:10:39;;;;;;;5.45;1.02;;;;;;;;;;5062884;28;20193;-72
2024/03/23 14:13:05;;;;;;;7.47;1.50;;;;;;;;;;5061079;28;20275;-72
2024/03/23 14:15:30;;;;;;;6.95;1.73;;;;;;;;;;5069441;28;20267;-73
2024/03/23 14:17:56;;;;;;;6.38;1.20;;;;;;;;;;5073302;28;20197;-71
2024/03/23 14:20:22;;;;;;;6.60;1.05;;;;;;;;;;5064939;28;20274;-70
2024/03/23 14:22:51;;;;;;;5.13;0.60;;;;;;;;;;5070356;28;20697;-71
2024/03/23 14:25:16;;;;;;;2.22;0.88;;;;;;;;;;5069105;28;20197;-73
2024/03/23 14:27:45;;;;;;;5.18;0.80;;;;;;;;;;5072244;28;20185;-72